Time;durP1;ratioP1;P1;durP2;ratioP2;P2;SDS_P1;SDS_P2;PMS_P1;PMS_P2;Temp;Humidity;BMP_temperature;BMP_pressure;BME280_temperature;BME280_humidity;BME280_pressure;Samples;Min_cycle;Max_cycle;Signal;HPM_P1;HPM_P2
2021/04/01 00:00:56;;;;;;;18.00;12.88;;;10.70;84.10;;;;;;2055790;28;20101;-74
2021/04/01 00:01:56;;;;;;;17.13;12.70;;;10.70;84.80;;;;;;2048918;28;20015;-74
2021/04/01 00:02:57;;;;;;;17.17;12.82;;;10.70;84.10;;;;;;2048118;28;20395;-75
2021/04/01 00:03:57;;;;;;;16.95;12.27;;;10.70;84.00;;;;;;2056803;28;20027;-74
2021/04/01 00:04:58;;;;;;;17.50;12.25;;;10.70;83.90;;;;;;2048501;28;20090;-74
2021/04/01 00:05:59;;;;;;;17.42;12.38;;;10.70;84.00;;;;;;2044649;29;20035;-74
2021/04/01 00:06:59;;;;;;;16.67;12.13;;;10.60;83.90;;;;;;2040542;28;20034;-76
2021/04/01 00:08:01;;;;;;;17.15;11.88;;;10.60;83.90;;;;;;2040509;29;20047;-75
2021/04/01 00:09:02;;;;;;;15.82;11.75;;;10.60;84.00;;;;;;2048688;28;20404;-76
2021/04/01 00:10:08;;;;;;;16.63;12.07;;;10.60;84.20;;;;;;2056788;28;20540;-75
2021/04/01 00:11:12;;;;;;;15.20;11.82;;;10.60;84.20;;;;;;2056826;28;20041;-75
2021/04/01 00:12:13;;;;;;;15.70;11.88;;;10.60;84.20;;;;;;2056135;28;20023;-74
2021/04/01 00:13:14;;;;;;;17.65;12.05;;;10.60;84.30;;;;;;2053253;28;20121;-75
2021/04/01 00:14:15;;;;;;;15.43;11.88;;;10.60;84.40;;;;;;2048283;29;20035;-75
2021/04/01 00:15:16;;;;;;;16.73;11.80;;;10.60;84.60;;;;;;2051535;28;20078;-76
2021/04/01 00:16:19;;;;;;;17.17;12.13;;;10.60;84.70;;;;;;2056050;28;20067;-76
2021/04/01 00:17:20;;;;;;;15.90;11.60;;;10.60;84.80;;;;;;2049753;28;20023;-77
2021/04/01 00:18:21;;;;;;;17.25;12.07;;;10.50;84.90;;;;;;2041923;29;20510;-75
2021/04/01 00:19:22;;;;;;;18.67;12.85;;;10.50;84.90;;;;;;2052912;28;20023;-75
2021/04/01 00:20:22;;;;;;;20.13;13.27;;;10.50;84.90;;;;;;2055264;28;20022;-74
2021/04/01 00:21:23;;;;;;;18.10;13.27;;;10.50;84.90;;;;;;2053432;28;20093;-74
2021/04/01 00:22:23;;;;;;;19.58;13.48;;;10.50;84.90;;;;;;2055007;28;20031;-76
2021/04/01 00:23:24;;;;;;;18.70;13.00;;;10.50;84.70;;;;;;2053091;28;20121;-74
2021/04/01 00:24:25;;;;;;;18.33;12.50;;;10.50;84.90;;;;;;2058305;28;20052;-75
2021/04/01 00:25:26;;;;;;;20.85;13.38;;;10.50;85.00;;;;;;2057713;28;20113;-74
2021/04/01 00:26:26;;;;;;;18.80;12.50;;;10.50;85.00;;;;;;2057823;28;20418;-74
2021/04/01 00:27:27;;;;;;;15.55;11.73;;;10.50;85.00;;;;;;2058291;28;20758;-74
2021/04/01 00:28:28;;;;;;;15.68;11.80;;;10.50;85.00;;;;;;2053853;28;20069;-75
2021/04/01 00:29:29;;;;;;;17.58;12.35;;;10.50;85.00;;;;;;2053585;28;20490;-74
2021/04/01 00:30:29;;;;;;;18.13;12.68;;;10.40;85.00;;;;;;2058164;28;20034;-74
2021/04/01 00:31:30;;;;;;;18.58;12.73;;;10.40;85.10;;;;;;2053937;28;20508;-76
2021/04/01 00:32:30;;;;;;;22.02;13.88;;;10.40;85.20;;;;;;2049476;28;20026;-74
2021/04/01 00:33:31;;;;;;;20.33;13.77;;;10.40;85.20;;;;;;2054399;28;20077;-74
2021/04/01 00:34:32;;;;;;;21.10;14.70;;;10.40;85.30;;;;;;2053820;28;20031;-74
2021/04/01 00:35:32;;;;;;;23.92;15.18;;;10.40;85.30;;;;;;2050180;28;20047;-74
2021/04/01 00:36:33;;;;;;;21.30;14.18;;;10.40;85.40;;;;;;2057688;28;20798;-74
2021/04/01 00:37:34;;;;;;;19.63;14.10;;;10.40;85.50;;;;;;2053591;28;20024;-74
2021/04/01 00:38:34;;;;;;;19.40;14.27;;;10.40;85.60;;;;;;2054943;28;20023;-75
2021/04/01 00:39:35;;;;;;;23.00;14.73;;;10.40;85.70;;;;;;2053320;28;20027;-75
2021/04/01 00:40:35;;;;;;;20.60;13.98;;;10.30;85.80;;;;;;2054480;28;20027;-75
2021/04/01 00:41:39;;;;;;;19.42;13.70;;;10.30;85.80;;;;;;2052620;28;20030;-74
2021/04/01 00:42:39;;;;;;;20.58;13.52;;;10.30;85.90;;;;;;2049404;28;20394;-74
2021/04/01 00:43:40;;;;;;;19.15;13.73;;;10.30;86.00;;;;;;2055716;28;20030;-74
2021/04/01 00:44:41;;;;;;;19.88;13.57;;;10.30;86.10;;;;;;2058222;28;20027;-75
2021/04/01 00:45:41;;;;;;;19.58;13.93;;;10.30;86.30;;;;;;2052420;28;20028;-75
2021/04/01 00:46:47;;;;;;;19.92;14.02;;;10.20;86.30;;;;;;2050227;28;20019;-75
2021/04/01 00:47:50;;;;;;;19.33;14.20;;;10.20;86.30;;;;;;2050083;28;20109;-74
2021/04/01 00:48:51;;;;;;;22.23;15.07;;;10.20;86.40;;;;;;2049253;28;20114;-75
2021/04/01 00:49:51;;;;;;;21.50;15.45;;;10.20;86.40;;;;;;2049510;28;20023;-74
2021/04/01 00:50:52;;;;;;;20.83;15.15;;;10.20;86.50;;;;;;2057018;28;20037;-75
2021/04/01 00:51:53;;;;;;;24.35;16.48;;;10.20;86.60;;;;;;2050343;28;20027;-76
2021/04/01 00:52:54;;;;;;;20.42;15.52;;;10.20;86.70;;;;;;2048761;28;20031;-75
2021/04/01 00:53:55;;;;;;;21.83;15.65;;;10.10;86.70;;;;;;2056714;28;20027;-73
2021/04/01 00:54:55;;;;;;;21.00;15.23;;;10.10;86.90;;;;;;2049201;28;20031;-74
2021/04/01 00:55:56;;;;;;;20.92;15.07;;;10.10;86.90;;;;;;2057493;28;20070;-74
2021/04/01 00:56:58;;;;;;;21.00;15.40;;;10.10;87.10;;;;;;2065602;28;20011;-74
2021/04/01 00:58:00;;;;;;;19.23;14.60;;;10.10;87.10;;;;;;2058125;28;20037;-76
2021/04/01 00:59:01;;;;;;;20.73;15.15;;;10.10;87.20;;;;;;2058044;28;20109;-76
2021/04/01 01:00:04;;;;;;;20.77;14.82;;;10.10;87.30;;;;;;2057782;28;20038;-75
2021/04/01 01:01:29;;;;;;;21.15;14.73;;;10.00;87.30;;;;;;2050140;28;20036;-77
2021/04/01 01:02:30;;;;;;;20.88;15.38;;;10.00;87.40;;;;;;2053098;28;20387;-75
2021/04/01 01:03:31;;;;;;;24.42;15.63;;;10.00;87.70;;;;;;2053110;28;20038;-75
2021/04/01 01:04:32;;;;;;;20.67;15.25;;;10.00;87.80;;;;;;2054316;28;20061;-75
2021/04/01 01:05:35;;;;;;;21.40;15.30;;;10.00;87.90;;;;;;2057619;28;20031;-75
2021/04/01 01:06:36;;;;;;;22.67;15.43;;;10.00;87.90;;;;;;2052869;28;20035;-75
2021/04/01 01:07:37;;;;;;;21.45;15.65;;;10.00;88.00;;;;;;2050040;28;20034;-75
2021/04/01 01:08:37;;;;;;;22.58;15.80;;;10.00;88.10;;;;;;2055302;28;20414;-74
2021/04/01 01:09:38;;;;;;;22.77;15.70;;;9.90;88.20;;;;;;2057508;28;20069;-77
2021/04/01 01:10:39;;;;;;;20.90;15.82;;;10.00;88.30;;;;;;2062843;28;20031;-74
2021/04/01 01:11:39;;;;;;;21.38;15.52;;;9.90;88.30;;;;;;2052710;28;20078;-75
2021/04/01 01:12:40;;;;;;;21.35;14.85;;;9.90;88.30;;;;;;2049528;28;20471;-75
2021/04/01 01:13:41;;;;;;;19.27;14.75;;;9.90;88.40;;;;;;2055040;28;20117;-74
2021/04/01 01:14:42;;;;;;;22.85;15.25;;;9.90;88.50;;;;;;2051532;28;20110;-74
2021/04/01 01:15:42;;;;;;;21.98;15.85;;;9.90;88.50;;;;;;2055156;28;20507;-74
2021/04/01 01:16:44;;;;;;;23.27;14.57;;;9.80;88.50;;;;;;2055040;28;20026;-75
2021/04/01 01:17:45;;;;;;;20.45;13.90;;;9.90;88.70;;;;;;2051104;28;20062;-74
2021/04/01 01:18:45;;;;;;;19.25;14.05;;;9.90;88.80;;;;;;2055220;28;20159;-74
2021/04/01 01:19:51;;;;;;;18.48;13.30;;;9.80;88.70;;;;;;2057213;28;20027;-74
2021/04/01 01:20:52;;;;;;;22.30;14.10;;;9.80;88.80;;;;;;2064633;28;20046;-74
2021/04/01 01:21:53;;;;;;;20.63;14.25;;;9.80;88.80;;;;;;2050720;28;20027;-74
2021/04/01 01:22:54;;;;;;;18.92;13.43;;;9.80;88.80;;;;;;2049145;28;20118;-73
2021/04/01 01:23:56;;;;;;;19.58;13.32;;;9.80;88.80;;;;;;2056637;28;20520;-74
2021/04/01 01:24:57;;;;;;;19.90;12.88;;;9.80;88.80;;;;;;2057105;28;20034;-74
2021/04/01 01:25:59;;;;;;;17.80;13.05;;;9.80;88.80;;;;;;2049136;28;20106;-73
2021/04/01 01:27:02;;;;;;;18.30;12.95;;;9.80;88.90;;;;;;2049186;29;20094;-74
2021/04/01 01:28:04;;;;;;;20.08;13.05;;;9.80;89.00;;;;;;2049632;28;20411;-73
2021/04/01 01:29:06;;;;;;;19.15;13.23;;;9.80;89.00;;;;;;2057670;28;20038;-74
2021/04/01 01:30:13;;;;;;;21.63;13.73;;;9.80;89.10;;;;;;2057938;28;20371;-73
2021/04/01 01:31:17;;;;;;;21.40;14.10;;;9.80;89.20;;;;;;2055492;28;20077;-73
2021/04/01 01:32:19;;;;;;;23.02;14.57;;;9.80;89.20;;;;;;2052366;28;20499;-72
2021/04/01 01:33:22;;;;;;;24.02;14.57;;;9.80;89.40;;;;;;2054172;28;20023;-73
2021/04/01 01:34:23;;;;;;;24.92;15.30;;;9.80;89.40;;;;;;2052908;28;20026;-72
2021/04/01 01:35:25;;;;;;;25.08;14.77;;;9.70;89.20;;;;;;2054592;28;20498;-73
2021/04/01 01:36:26;;;;;;;23.00;14.70;;;9.70;89.20;;;;;;2057662;28;20021;-72
2021/04/01 01:37:27;;;;;;;22.17;14.20;;;9.70;89.30;;;;;;2057690;28;20030;-75
2021/04/01 01:38:27;;;;;;;22.83;14.38;;;9.70;89.20;;;;;;2057718;28;20031;-73
2021/04/01 01:39:28;;;;;;;21.05;14.35;;;9.70;89.30;;;;;;2053781;28;20078;-75
2021/04/01 01:40:30;;;;;;;22.08;13.82;;;9.70;89.30;;;;;;2053619;28;20023;-74
2021/04/01 01:41:31;;;;;;;21.73;13.55;;;9.70;89.40;;;;;;2057646;28;20023;-77
2021/04/01 01:42:31;;;;;;;19.70;13.45;;;9.70;89.60;;;;;;2051983;28;20038;-75
2021/04/01 01:43:33;;;;;;;21.65;13.88;;;9.70;89.70;;;;;;2045441;29;20110;-75
2021/04/01 01:44:34;;;;;;;19.13;13.40;;;9.70;89.60;;;;;;2057160;28;20109;-75
2021/04/01 01:45:35;;;;;;;36.75;23.73;;;9.70;89.60;;;;;;2056922;28;20031;-74
2021/04/01 01:46:36;;;;;;;38.97;26.23;;;9.60;89.60;;;;;;2057007;28;20121;-75
2021/04/01 01:47:36;;;;;;;39.38;26.42;;;9.60;89.70;;;;;;2057582;28;20026;-72
2021/04/01 01:48:37;;;;;;;36.17;23.65;;;9.60;89.70;;;;;;2057533;28;20023;-74
2021/04/01 01:49:41;;;;;;;30.58;21.65;;;9.60;89.60;;;;;;2057551;28;20045;-75
2021/04/01 01:50:41;;;;;;;30.67;20.17;;;9.60;89.70;;;;;;2051967;28;20801;-74
2021/04/01 01:51:42;;;;;;;27.33;18.65;;;9.60;89.70;;;;;;2055389;28;20085;-73
2021/04/01 01:52:43;;;;;;;29.98;18.13;;;9.60;89.80;;;;;;2056814;28;20053;-73
2021/04/01 01:53:44;;;;;;;28.02;16.50;;;9.60;89.70;;;;;;2050850;28;20061;-73
2021/04/01 01:54:44;;;;;;;25.85;16.27;;;9.60;89.70;;;;;;2055053;28;20049;-73
2021/04/01 01:55:45;;;;;;;23.13;15.98;;;9.60;89.60;;;;;;2057441;28;20540;-73
2021/04/01 01:56:46;;;;;;;22.75;15.20;;;9.50;89.60;;;;;;2057498;28;20027;-73
2021/04/01 01:57:47;;;;;;;21.50;14.70;;;9.60;89.70;;;;;;2051176;28;20403;-73
2021/04/01 01:58:49;;;;;;;21.55;14.57;;;9.50;89.70;;;;;;2055215;28;20414;-74
2021/04/01 01:59:49;;;;;;;23.90;15.25;;;9.50;89.60;;;;;;2056922;28;20098;-73
2021/04/01 02:00:54;;;;;;;21.30;14.15;;;9.50;89.70;;;;;;2057510;28;20027;-73
2021/04/01 02:01:55;;;;;;;20.05;14.15;;;9.50;89.70;;;;;;2057471;28;20441;-73
2021/04/01 02:02:57;;;;;;;21.17;14.02;;;9.50;89.80;;;;;;2049093;28;20028;-72
2021/04/01 02:04:04;;;;;;;21.55;13.75;;;9.50;89.80;;;;;;2049494;28;20026;-73
2021/04/01 02:05:08;;;;;;;19.67;13.10;;;9.50;89.90;;;;;;2050256;28;20142;-75
2021/04/01 02:06:13;;;;;;;20.65;14.20;;;9.50;89.90;;;;;;2057285;28;20117;-75
2021/04/01 02:07:14;;;;;;;20.40;14.55;;;9.40;89.90;;;;;;2057416;28;20406;-75
2021/04/01 02:08:15;;;;;;;20.42;14.45;;;9.50;90.00;;;;;;2054726;28;20034;-73
2021/04/01 02:09:15;;;;;;;19.65;13.52;;;9.50;90.00;;;;;;2050971;28;20447;-73
2021/04/01 02:10:26;;;;;;;21.20;13.70;;;9.40;90.00;;;;;;2055092;28;20467;-74
2021/04/01 02:11:27;;;;;;;20.30;13.45;;;9.40;90.00;;;;;;2053042;28;20053;-73
2021/04/01 02:12:28;;;;;;;19.90;13.60;;;9.40;90.00;;;;;;2052699;28;20095;-73
2021/04/01 02:13:28;;;;;;;18.75;13.52;;;9.40;90.10;;;;;;2053232;28;20039;-73
2021/04/01 02:14:29;;;;;;;20.48;13.68;;;9.40;90.10;;;;;;2057279;28;20023;-73
2021/04/01 02:15:36;;;;;;;21.17;14.02;;;9.40;90.10;;;;;;2052852;28;20011;-72
2021/04/01 02:16:37;;;;;;;20.83;13.98;;;9.40;90.20;;;;;;2054691;28;20026;-73
2021/04/01 02:17:38;;;;;;;21.98;14.18;;;9.40;90.20;;;;;;2052144;28;20023;-72
2021/04/01 02:18:39;;;;;;;20.35;13.45;;;9.30;90.10;;;;;;2049473;28;20019;-73
2021/04/01 02:19:40;;;;;;;22.52;14.68;;;9.30;90.20;;;;;;2054853;28;20018;-73
2021/04/01 02:20:46;;;;;;;22.13;14.18;;;9.30;90.20;;;;;;2057411;28;20379;-75
2021/04/01 02:21:46;;;;;;;23.75;14.38;;;9.30;90.20;;;;;;2051020;28;20019;-74
2021/04/01 02:22:47;;;;;;;20.45;13.68;;;9.30;90.20;;;;;;2055030;28;20434;-75
2021/04/01 02:23:47;;;;;;;23.98;14.38;;;9.30;90.20;;;;;;2057227;28;20715;-74
2021/04/01 02:24:48;;;;;;;22.50;14.35;;;9.30;90.20;;;;;;2050796;28;20782;-74
2021/04/01 02:25:51;;;;;;;21.48;14.05;;;9.30;90.30;;;;;;2056169;28;20374;-74
2021/04/01 02:26:59;;;;;;;22.00;13.80;;;9.30;90.30;;;;;;2050331;28;20384;-74
2021/04/01 02:28:00;;;;;;;23.20;15.02;;;9.30;90.30;;;;;;2049622;28;20380;-74
2021/04/01 02:29:00;;;;;;;21.05;14.70;;;9.20;90.30;;;;;;2057138;28;20037;-76
2021/04/01 02:30:02;;;;;;;20.35;14.00;;;9.20;90.30;;;;;;2048659;28;20529;-74
2021/04/01 02:31:07;;;;;;;23.38;14.80;;;9.20;90.30;;;;;;2048531;28;20051;-76
2021/04/01 02:32:08;;;;;;;23.30;14.95;;;9.20;90.40;;;;;;2048714;29;20063;-74
2021/04/01 02:33:09;;;;;;;21.60;13.80;;;9.10;90.40;;;;;;2048335;28;20031;-75
2021/04/01 02:34:09;;;;;;;20.67;14.50;;;9.10;90.40;;;;;;2048560;28;20035;-74
2021/04/01 02:35:10;;;;;;;21.88;14.40;;;9.20;90.50;;;;;;2050219;28;20040;-74
2021/04/01 02:36:11;;;;;;;20.05;14.48;;;9.10;90.50;;;;;;2056843;28;20026;-75
2021/04/01 02:37:12;;;;;;;19.60;13.93;;;9.10;90.50;;;;;;2055446;28;20023;-74
2021/04/01 02:38:13;;;;;;;20.90;14.63;;;9.10;90.50;;;;;;2050511;28;20645;-74
2021/04/01 02:39:13;;;;;;;21.42;14.23;;;9.10;90.60;;;;;;2055053;28;20035;-74
2021/04/01 02:40:14;;;;;;;21.95;14.18;;;9.10;90.60;;;;;;2050371;28;20031;-74
2021/04/01 02:41:15;;;;;;;20.83;14.35;;;9.10;90.60;;;;;;2054093;28;20069;-75
2021/04/01 02:42:15;;;;;;;18.77;13.55;;;9.10;90.70;;;;;;2048412;28;20023;-74
2021/04/01 02:43:22;;;;;;;17.33;13.50;;;9.10;90.70;;;;;;2050191;28;20019;-74
2021/04/01 02:44:22;;;;;;;19.50;14.07;;;9.00;90.60;;;;;;2057371;28;20089;-74
2021/04/01 02:45:23;;;;;;;18.10;13.38;;;9.00;90.70;;;;;;2053968;28;20052;-75
2021/04/01 02:46:23;;;;;;;18.88;13.23;;;9.00;90.80;;;;;;2052476;28;20031;-74
2021/04/01 02:47:24;;;;;;;17.98;12.98;;;9.00;90.80;;;;;;2056895;28;20023;-74
2021/04/01 02:48:25;;;;;;;18.35;13.63;;;9.00;90.80;;;;;;2053798;28;20015;-74
2021/04/01 02:49:25;;;;;;;18.75;13.05;;;9.00;90.80;;;;;;2048962;28;20070;-75
2021/04/01 02:50:26;;;;;;;17.45;12.95;;;9.00;90.90;;;;;;2049345;28;20151;-75
2021/04/01 02:51:27;;;;;;;21.15;13.55;;;9.00;90.90;;;;;;2052951;28;20405;-74
2021/04/01 02:52:27;;;;;;;17.67;13.23;;;9.00;90.90;;;;;;2052093;28;20138;-76
2021/04/01 02:53:28;;;;;;;19.45;13.68;;;9.00;90.90;;;;;;2048356;28;20062;-74
2021/04/01 02:54:28;;;;;;;18.45;13.23;;;9.00;90.90;;;;;;2049234;28;20058;-73
2021/04/01 02:55:29;;;;;;;18.70;13.10;;;9.00;90.90;;;;;;2048446;28;20511;-72
2021/04/01 02:56:30;;;;;;;21.23;13.57;;;9.00;90.90;;;;;;2048640;29;20027;-74
2021/04/01 02:57:30;;;;;;;19.48;13.15;;;8.90;90.90;;;;;;2052486;28;20109;-73
2021/04/01 02:58:31;;;;;;;18.33;13.13;;;8.90;90.90;;;;;;2056628;28;20034;-74
2021/04/01 02:59:31;;;;;;;18.98;13.60;;;8.90;90.80;;;;;;2057063;28;20031;-73
2021/04/01 03:00:34;;;;;;;18.80;13.32;;;8.90;90.80;;;;;;2052700;28;20090;-75
2021/04/01 03:01:36;;;;;;;18.60;13.50;;;8.90;90.90;;;;;;2053908;28;20034;-73
2021/04/01 03:02:40;;;;;;;20.42;13.50;;;8.90;90.90;;;;;;2056531;28;20045;-73
2021/04/01 03:03:45;;;;;;;20.27;13.57;;;8.90;90.90;;;;;;2051616;28;20023;-74
2021/04/01 03:04:47;;;;;;;19.70;14.38;;;8.90;90.90;;;;;;2049123;28;20491;-74
2021/04/01 03:05:48;;;;;;;19.85;13.90;;;8.90;90.90;;;;;;2051539;28;20167;-74
2021/04/01 03:06:48;;;;;;;21.88;13.98;;;8.90;91.20;;;;;;2050569;28;20102;-74
2021/04/01 03:07:49;;;;;;;18.63;13.43;;;8.90;90.90;;;;;;2048523;28;20031;-74
2021/04/01 03:08:49;;;;;;;21.52;13.43;;;8.90;90.90;;;;;;2048553;28;20636;-73
2021/04/01 03:09:50;;;;;;;19.02;14.20;;;8.90;90.90;;;;;;2049261;28;20074;-75
2021/04/01 03:10:50;;;;;;;19.73;13.95;;;8.90;90.90;;;;;;2048499;28;20403;-74
2021/04/01 03:11:51;;;;;;;18.23;13.68;;;8.90;90.90;;;;;;2055468;28;20034;-74
2021/04/01 03:12:52;;;;;;;19.67;13.75;;;8.90;90.90;;;;;;2055597;28;20031;-73
2021/04/01 03:13:52;;;;;;;19.55;14.00;;;8.80;90.90;;;;;;2049287;28;20069;-73
2021/04/01 03:14:53;;;;;;;23.40;14.30;;;8.80;90.90;;;;;;2049064;28;20024;-73
2021/04/01 03:15:53;;;;;;;21.85;14.32;;;8.80;90.90;;;;;;2055891;28;20449;-73
2021/04/01 03:16:54;;;;;;;19.98;14.23;;;8.80;90.90;;;;;;2049256;28;20034;-73
2021/04/01 03:17:55;;;;;;;21.45;14.32;;;8.80;90.90;;;;;;2049207;28;20015;-74
2021/04/01 03:18:56;;;;;;;20.58;14.50;;;8.80;90.90;;;;;;2056816;28;20027;-73
2021/04/01 03:19:57;;;;;;;20.48;14.25;;;8.80;90.90;;;;;;2049643;28;20472;-74
2021/04/01 03:20:57;;;;;;;23.70;14.70;;;8.80;91.00;;;;;;2049215;28;20060;-73
2021/04/01 03:21:58;;;;;;;21.23;14.32;;;8.80;91.00;;;;;;2048980;28;20023;-73
2021/04/01 03:22:59;;;;;;;21.95;14.25;;;8.70;91.10;;;;;;2047872;28;20026;-74
2021/04/01 03:24:00;;;;;;;18.55;13.82;;;8.70;91.10;;;;;;2056599;28;20452;-74
2021/04/01 03:25:00;;;;;;;19.27;13.98;;;8.70;91.10;;;;;;2056336;28;20540;-73
2021/04/01 03:26:01;;;;;;;19.23;13.57;;;8.70;91.10;;;;;;2049068;28;20039;-74
2021/04/01 03:27:02;;;;;;;19.35;13.98;;;8.70;91.20;;;;;;2049207;28;20057;-73
2021/04/01 03:28:02;;;;;;;20.00;14.30;;;8.70;91.20;;;;;;2056625;28;20034;-73
2021/04/01 03:29:03;;;;;;;20.38;14.50;;;8.70;91.30;;;;;;2056304;28;20026;-74
2021/04/01 03:30:07;;;;;;;20.75;14.13;;;8.70;91.30;;;;;;2049047;28;20039;-73
2021/04/01 03:31:08;;;;;;;19.67;14.02;;;8.70;91.40;;;;;;2056328;28;20023;-73
2021/04/01 03:32:09;;;;;;;20.35;13.90;;;8.60;91.40;;;;;;2056721;28;20023;-73
2021/04/01 03:33:09;;;;;;;20.05;13.73;;;8.60;91.40;;;;;;2053875;28;20105;-74
2021/04/01 03:34:10;;;;;;;21.70;14.30;;;8.60;91.70;;;;;;2049780;28;20039;-74
2021/04/01 03:35:14;;;;;;;20.85;13.93;;;8.60;91.40;;;;;;2054769;28;20038;-73
2021/04/01 03:36:15;;;;;;;20.85;14.73;;;8.60;91.40;;;;;;2052496;28;20019;-74
2021/04/01 03:37:15;;;;;;;18.45;14.07;;;8.60;91.40;;;;;;2048970;28;20516;-75
2021/04/01 03:38:17;;;;;;;19.70;14.10;;;8.60;91.40;;;;;;2051349;28;20024;-74
2021/04/01 03:39:18;;;;;;;19.35;13.60;;;8.60;91.40;;;;;;2056421;28;20034;-74
2021/04/01 03:40:19;;;;;;;19.05;13.82;;;8.60;91.40;;;;;;2053822;28;20515;-74
2021/04/01 03:41:20;;;;;;;19.50;14.35;;;8.60;91.40;;;;;;2048298;29;20023;-73
2021/04/01 03:42:21;;;;;;;20.15;13.55;;;8.60;91.40;;;;;;2051765;28;20463;-73
2021/04/01 03:43:25;;;;;;;20.15;14.00;;;8.60;91.40;;;;;;2052961;28;20110;-73
2021/04/01 03:44:25;;;;;;;18.55;14.18;;;8.60;91.40;;;;;;2048919;28;20019;-74
2021/04/01 03:45:26;;;;;;;20.80;14.38;;;8.60;91.40;;;;;;2052675;28;20073;-73
2021/04/01 03:46:27;;;;;;;20.58;14.23;;;8.60;91.50;;;;;;2056211;28;20027;-73
2021/04/01 03:47:27;;;;;;;22.60;14.70;;;8.60;91.50;;;;;;2056344;28;20138;-74
2021/04/01 03:48:28;;;;;;;20.95;14.15;;;8.60;91.50;;;;;;2060493;28;20494;-73
2021/04/01 03:49:28;;;;;;;22.23;14.18;;;8.60;91.50;;;;;;2048998;28;20110;-74
2021/04/01 03:50:29;;;;;;;22.15;15.07;;;8.60;91.50;;;;;;2049774;28;20050;-73
2021/04/01 03:51:30;;;;;;;23.70;15.20;;;8.60;91.60;;;;;;2054571;28;20097;-74
2021/04/01 03:52:30;;;;;;;19.10;14.27;;;8.60;91.60;;;;;;2053629;28;20027;-73
2021/04/01 03:53:31;;;;;;;21.48;14.73;;;8.60;91.40;;;;;;2049675;28;20027;-73
2021/04/01 03:54:32;;;;;;;20.15;14.20;;;8.60;91.40;;;;;;2054336;28;20085;-75
2021/04/01 03:55:38;;;;;;;21.00;14.38;;;8.60;91.50;;;;;;2053895;28;20015;-74
2021/04/01 03:56:48;;;;;;;23.20;14.82;;;8.60;91.50;;;;;;2050480;28;20035;-73
2021/04/01 03:57:51;;;;;;;21.33;14.45;;;8.60;91.50;;;;;;2049900;28;20097;-74
2021/04/01 04:00:29;;;;;;;21.23;14.53;;;8.60;91.40;;;;;;2052805;28;20034;-74
2021/04/01 04:01:57;;;;;;;20.90;14.40;;;8.60;91.50;;;;;;2053596;28;20279;-74
2021/04/01 04:03:07;;;;;;;22.77;14.98;;;8.60;91.50;;;;;;2044656;28;20023;-74
2021/04/01 04:04:28;;;;;;;24.08;15.60;;;8.60;91.60;;;;;;2050079;28;20039;-74
2021/04/01 04:06:01;;;;;;;22.85;15.05;;;8.60;91.60;;;;;;2050413;28;20043;-74
2021/04/01 04:07:10;;;;;;;;;;;8.60;91.80;;;;;;2051911;28;20526;-74
2021/04/01 04:10:52;;;;;;;20.43;15.40;;;8.50;91.60;;;;;;2055691;28;20019;-74
2021/04/01 04:12:43;;;;;;;20.70;14.50;;;8.60;91.60;;;;;;2051162;28;20959;-74
2021/04/01 04:13:23;;;;;;;22.10;14.60;;;8.60;91.40;;;;;;2048864;28;20055;-74
2021/04/01 04:14:33;;;;;;;20.30;14.73;;;8.50;91.40;;;;;;2053204;28;20122;-74
2021/04/01 04:15:33;;;;;;;20.15;14.68;;;8.50;91.30;;;;;;2057925;28;20054;-74
2021/04/01 04:16:34;;;;;;;22.55;15.07;;;8.50;91.30;;;;;;2053568;28;20653;-74
2021/04/01 04:17:35;;;;;;;21.33;14.77;;;8.50;91.30;;;;;;2055019;28;20030;-75
2021/04/01 04:18:35;;;;;;;21.17;15.02;;;8.50;91.40;;;;;;2058393;28;20102;-74
2021/04/01 04:19:36;;;;;;;25.10;15.57;;;8.50;91.30;;;;;;2053396;28;20023;-74
2021/04/01 04:20:37;;;;;;;21.40;14.85;;;8.50;91.30;;;;;;2050469;28;20046;-74
2021/04/01 04:21:39;;;;;;;21.63;14.65;;;8.50;91.30;;;;;;2055674;28;20100;-75
2021/04/01 04:22:41;;;;;;;22.60;15.27;;;8.50;91.30;;;;;;2052404;28;20039;-74
2021/04/01 04:23:45;;;;;;;21.02;14.63;;;8.50;91.30;;;;;;2049863;28;20097;-73
2021/04/01 04:24:46;;;;;;;22.17;15.13;;;8.50;91.40;;;;;;2056115;28;20018;-73
2021/04/01 04:25:47;;;;;;;23.33;15.30;;;8.50;91.30;;;;;;2051881;28;20027;-74
2021/04/01 04:26:50;;;;;;;24.23;15.63;;;8.50;91.20;;;;;;2056002;28;20979;-74
2021/04/01 04:28:05;;;;;;;21.08;14.77;;;8.50;91.10;;;;;;2050772;28;20027;-73
2021/04/01 04:29:06;;;;;;;22.45;15.05;;;8.50;91.10;;;;;;2051041;28;20051;-74
2021/04/01 04:30:07;;;;;;;23.45;14.98;;;8.50;91.10;;;;;;2057415;28;20371;-73
2021/04/01 04:31:08;;;;;;;20.33;14.90;;;8.50;91.20;;;;;;2050451;28;20110;-74
2021/04/01 04:32:09;;;;;;;24.42;15.23;;;8.50;91.50;;;;;;2051063;28;20042;-74
2021/04/01 04:33:10;;;;;;;22.70;14.70;;;8.50;91.10;;;;;;2050767;28;20043;-76
2021/04/01 04:34:11;;;;;;;24.08;15.98;;;8.50;91.10;;;;;;2052856;28;20031;-74
2021/04/01 04:35:12;;;;;;;21.40;15.27;;;8.50;91.10;;;;;;2059201;28;20069;-74
2021/04/01 04:36:12;;;;;;;22.40;14.68;;;8.50;91.10;;;;;;2058459;28;20019;-74
2021/04/01 04:37:13;;;;;;;23.00;14.73;;;8.50;91.10;;;;;;2053871;28;20201;-76
2021/04/01 04:38:13;;;;;;;21.30;14.48;;;8.50;91.10;;;;;;2059432;28;20058;-75
2021/04/01 04:39:14;;;;;;;22.67;15.00;;;8.40;91.10;;;;;;2056290;28;20023;-74
2021/04/01 04:40:15;;;;;;;24.80;15.25;;;8.40;91.10;;;;;;2052275;28;20117;-74
2021/04/01 04:41:16;;;;;;;21.42;14.70;;;8.40;91.20;;;;;;2055239;28;20515;-74
2021/04/01 04:42:17;;;;;;;20.13;14.60;;;8.40;91.20;;;;;;2049198;28;20034;-74
2021/04/01 04:43:18;;;;;;;21.00;14.68;;;8.40;91.20;;;;;;2051441;28;20035;-75
2021/04/01 04:44:18;;;;;;;21.65;14.60;;;8.40;91.20;;;;;;2057454;28;20399;-74
2021/04/01 04:45:19;;;;;;;22.88;15.05;;;8.40;91.20;;;;;;2057359;28;20498;-74
2021/04/01 04:46:19;;;;;;;21.83;14.93;;;8.40;91.30;;;;;;2046881;28;20027;-74
2021/04/01 04:47:20;;;;;;;22.08;14.60;;;8.40;91.30;;;;;;2049552;28;20118;-74
2021/04/01 04:48:21;;;;;;;19.92;14.43;;;8.40;91.30;;;;;;2052505;28;20025;-73
2021/04/01 04:49:22;;;;;;;21.35;14.57;;;8.30;91.30;;;;;;2049180;28;20118;-75
2021/04/01 04:50:23;;;;;;;22.92;15.23;;;8.40;91.40;;;;;;2053943;28;20043;-75
2021/04/01 04:51:23;;;;;;;20.95;14.43;;;8.40;91.40;;;;;;2049215;28;20027;-76
2021/04/01 04:52:24;;;;;;;21.75;14.27;;;8.40;91.40;;;;;;2049076;28;20038;-75
2021/04/01 04:53:25;;;;;;;20.23;14.55;;;8.40;91.50;;;;;;2048463;28;20111;-76
2021/04/01 04:54:32;;;;;;;19.52;14.18;;;8.40;91.50;;;;;;2048941;28;20491;-76
2021/04/01 04:55:33;;;;;;;21.35;14.60;;;8.40;91.50;;;;;;2049035;28;20060;-75
2021/04/01 04:56:34;;;;;;;20.13;14.65;;;8.40;91.50;;;;;;2048711;28;20027;-76
2021/04/01 04:57:45;;;;;;;20.80;14.93;;;8.40;91.50;;;;;;2048594;28;20019;-76
2021/04/01 04:58:53;;;;;;;24.08;15.90;;;8.40;91.50;;;;;;2049346;28;20034;-76
2021/04/01 05:05:18;;;;;;;24.98;16.10;;;8.40;91.10;;;;;;2056817;28;20039;-75
2021/04/01 05:07:01;;;;;;;23.15;15.68;;;8.50;91.10;;;;;;2053669;28;20106;-75
2021/04/01 05:07:43;;;;;;;24.17;15.63;;;8.50;91.10;;;;;;2043635;29;20034;-76
2021/04/01 05:08:43;;;;;;;23.45;15.30;;;8.60;91.10;;;;;;2054260;28;20037;-76
2021/04/01 05:09:44;;;;;;;23.35;15.68;;;8.60;91.00;;;;;;2057899;28;20027;-77
2021/04/01 05:10:44;;;;;;;24.35;15.73;;;8.60;91.00;;;;;;2056980;28;20027;-76
2021/04/01 05:11:45;;;;;;;20.65;14.75;;;8.60;91.00;;;;;;2056397;28;20126;-75
2021/04/01 05:12:50;;;;;;;21.25;14.77;;;8.60;91.00;;;;;;2056552;28;20060;-75
2021/04/01 05:13:51;;;;;;;20.95;14.50;;;8.60;90.90;;;;;;2056985;28;20022;-73
2021/04/01 05:14:51;;;;;;;21.08;14.98;;;8.70;90.90;;;;;;2056485;28;20402;-76
2021/04/01 05:15:52;;;;;;;20.67;14.93;;;8.70;90.80;;;;;;2056388;28;20035;-76
2021/04/01 05:16:53;;;;;;;22.80;15.20;;;8.70;90.80;;;;;;2056914;28;20047;-73
2021/04/01 05:17:59;;;;;;;23.15;16.10;;;8.80;90.70;;;;;;2057395;28;20050;-76
2021/04/01 05:19:03;;;;;;;23.88;15.65;;;8.80;90.60;;;;;;2057368;28;20019;-75
2021/04/01 05:20:06;;;;;;;23.70;14.95;;;8.90;90.60;;;;;;2057220;28;20394;-77
2021/04/01 05:21:07;;;;;;;20.73;15.05;;;9.00;90.40;;;;;;2058145;28;20035;-76
2021/04/01 05:22:14;;;;;;;21.58;15.48;;;9.10;90.30;;;;;;2058526;28;20066;-77
2021/04/01 05:24:27;;;;;;;;;;;9.30;89.80;;;;;;2054432;28;20697;-75
2021/04/01 05:25:29;;;;;;;24.48;15.85;;;9.40;89.00;;;;;;2050405;28;19917;-76
2021/04/01 05:27:44;;;;;;;23.92;15.30;;;9.50;88.00;;;;;;2054187;28;20030;-76
2021/04/01 05:28:48;;;;;;;26.38;16.25;;;9.60;88.00;;;;;;2057188;28;20083;-76
2021/04/01 05:30:02;;;;;;;24.65;15.73;;;9.60;87.20;;;;;;2056901;28;20035;-75
2021/04/01 05:31:05;;;;;;;22.98;15.30;;;9.60;87.10;;;;;;2049118;28;20530;-75